Terminal Aerodrome Forecast
Issued by NWS Riverton, WY

Home | Current Version | Previous Version | Text Only | Print | Product List | Glossary On
Versions: 1 2 3 4 5 6 7 8 9 10 11 12 13 14
594
FTUS45 KRIW 162321
TAFRIW
TAF
KRIW 162321Z 1700/1724 20007KT P6SM SCT090 BKN150
     FM170300 30010KT P6SM FEW100 SCT150=

USA.gov is the U.S. government's official web portal to all federal, state and local government web resources and services.